sensor_id;sensor_type;location;lat;lon;timestamp;temperature;humidity
9209;DHT22;4639;48.862;9.188;2022-11-20T00:01:11;6.00;99.90
9209;DHT22;4639;48.862;9.188;2022-11-20T00:03:38;6.00;99.90
9209;DHT22;4639;48.862;9.188;2022-11-20T00:06:05;6.10;99.90
9209;DHT22;4639;48.862;9.188;2022-11-20T00:08:31;6.10;99.90
9209;DHT22;4639;48.862;9.188;2022-11-20T00:10:56;6.10;99.90
9209;DHT22;4639;48.862;9.188;2022-11-20T00:13:22;6.20;99.90
9209;DHT22;4639;48.862;9.188;2022-11-20T00:15:48;6.30;99.90
9209;DHT22;4639;48.862;9.188;2022-11-20T00:18:13;6.30;99.90
9209;DHT22;4639;48.862;9.188;2022-11-20T00:20:39;6.20;99.90
9209;DHT22;4639;48.862;9.188;2022-11-20T00:23:04;6.20;99.90
9209;DHT22;4639;48.862;9.188;2022-11-20T00:25:33;6.10;99.90
9209;DHT22;4639;48.862;9.188;2022-11-20T00:27:59;6.10;99.90
9209;DHT22;4639;48.862;9.188;2022-11-20T00:30:25;6.10;99.90
9209;DHT22;4639;48.862;9.188;2022-11-20T00:32:50;6.20;99.90
9209;DHT22;4639;48.862;9.188;2022-11-20T00:35:16;6.20;99.90
9209;DHT22;4639;48.862;9.188;2022-11-20T00:37:41;6.20;99.90
9209;DHT22;4639;48.862;9.188;2022-11-20T00:40:07;6.30;99.90
9209;DHT22;4639;48.862;9.188;2022-11-20T00:42:33;6.40;99.90
9209;DHT22;4639;48.862;9.188;2022-11-20T00:44:59;6.40;99.90
9209;DHT22;4639;48.862;9.188;2022-11-20T00:47:24;6.40;99.90
9209;DHT22;4639;48.862;9.188;2022-11-20T00:49:50;6.50;99.90
9209;DHT22;4639;48.862;9.188;2022-11-20T00:52:15;6.50;99.90
9209;DHT22;4639;48.862;9.188;2022-11-20T00:54:41;6.40;99.90
9209;DHT22;4639;48.862;9.188;2022-11-20T00:57:06;6.30;99.90
9209;DHT22;4639;48.862;9.188;2022-11-20T00:59:32;6.40;99.90
9209;DHT22;4639;48.862;9.188;2022-11-20T01:01:57;6.40;99.90
9209;DHT22;4639;48.862;9.188;2022-11-20T01:04:23;6.50;99.90
9209;DHT22;4639;48.862;9.188;2022-11-20T01:06:48;6.60;99.90
9209;DHT22;4639;48.862;9.188;2022-11-20T01:09:14;6.60;99.90
9209;DHT22;4639;48.862;9.188;2022-11-20T01:11:42;6.60;99.90
9209;DHT22;4639;48.862;9.188;2022-11-20T01:14:12;6.60;99.90
9209;DHT22;4639;48.862;9.188;2022-11-20T01:16:43;6.60;99.90
9209;DHT22;4639;48.862;9.188;2022-11-20T01:19:14;6.60;99.90
9209;DHT22;4639;48.862;9.188;2022-11-20T01:21:41;6.60;99.90
9209;DHT22;4639;48.862;9.188;2022-11-20T01:24:10;6.70;99.90
9209;DHT22;4639;48.862;9.188;2022-11-20T01:26:37;6.70;99.90
9209;DHT22;4639;48.862;9.188;2022-11-20T01:29:04;6.70;99.90
9209;DHT22;4639;48.862;9.188;2022-11-20T01:31:36;6.70;99.90
9209;DHT22;4639;48.862;9.188;2022-11-20T01:34:05;6.70;99.90
9209;DHT22;4639;48.862;9.188;2022-11-20T01:36:33;6.70;99.90
9209;DHT22;4639;48.862;9.188;2022-11-20T01:39:01;6.60;99.90
9209;DHT22;4639;48.862;9.188;2022-11-20T01:41:30;6.50;99.90
9209;DHT22;4639;48.862;9.188;2022-11-20T01:44:17;6.40;99.90
9209;DHT22;4639;48.862;9.188;2022-11-20T01:47:04;6.30;99.90
9209;DHT22;4639;48.862;9.188;2022-11-20T01:49:40;6.00;99.90
9209;DHT22;4639;48.862;9.188;2022-11-20T01:52:19;6.00;99.90
9209;DHT22;4639;48.862;9.188;2022-11-20T01:54:53;6.00;99.90
9209;DHT22;4639;48.862;9.188;2022-11-20T01:57:20;5.90;99.90
9209;DHT22;4639;48.862;9.188;2022-11-20T01:59:53;5.90;99.90
9209;DHT22;4639;48.862;9.188;2022-11-20T02:02:22;5.90;99.90
9209;DHT22;4639;48.862;9.188;2022-11-20T02:04:50;5.90;99.90
9209;DHT22;4639;48.862;9.188;2022-11-20T02:07:17;5.90;99.90
9209;DHT22;4639;48.862;9.188;2022-11-20T02:09:43;5.90;99.90
9209;DHT22;4639;48.862;9.188;2022-11-20T02:12:08;5.90;99.90
9209;DHT22;4639;48.862;9.188;2022-11-20T02:14:54;6.00;99.90
9209;DHT22;4639;48.862;9.188;2022-11-20T02:17:19;6.00;99.90
9209;DHT22;4639;48.862;9.188;2022-11-20T02:19:45;6.10;99.90
9209;DHT22;4639;48.862;9.188;2022-11-20T02:22:28;6.10;99.90
9209;DHT22;4639;48.862;9.188;2022-11-20T02:24:56;6.20;99.90
9209;DHT22;4639;48.862;9.188;2022-11-20T02:27:24;6.20;99.90
9209;DHT22;4639;48.862;9.188;2022-11-20T02:29:57;6.10;99.90
9209;DHT22;4639;48.862;9.188;2022-11-20T02:32:29;6.10;99.90
9209;DHT22;4639;48.862;9.188;2022-11-20T02:34:55;6.20;99.90
9209;DHT22;4639;48.862;9.188;2022-11-20T02:37:23;6.20;99.90
9209;DHT22;4639;48.862;9.188;2022-11-20T02:39:51;6.20;99.90
9209;DHT22;4639;48.862;9.188;2022-11-20T02:42:17;6.20;99.90
9209;DHT22;4639;48.862;9.188;2022-11-20T02:44:43;6.20;99.90
9209;DHT22;4639;48.862;9.188;2022-11-20T02:47:09;6.20;99.90
9209;DHT22;4639;48.862;9.188;2022-11-20T02:49:34;6.10;99.90
9209;DHT22;4639;48.862;9.188;2022-11-20T02:52:00;6.10;99.90
9209;DHT22;4639;48.862;9.188;2022-11-20T02:54:26;6.10;99.90
9209;DHT22;4639;48.862;9.188;2022-11-20T02:56:52;6.10;99.90
9209;DHT22;4639;48.862;9.188;2022-11-20T02:59:18;6.10;99.90
9209;DHT22;4639;48.862;9.188;2022-11-20T03:01:43;6.20;99.90
9209;DHT22;4639;48.862;9.188;2022-11-20T03:04:09;6.20;99.90
9209;DHT22;4639;48.862;9.188;2022-11-20T03:06:35;6.20;99.90
9209;DHT22;4639;48.862;9.188;2022-11-20T03:09:00;6.20;99.90
9209;DHT22;4639;48.862;9.188;2022-11-20T03:11:26;6.10;99.90
9209;DHT22;4639;48.862;9.188;2022-11-20T03:13:51;6.10;99.90
9209;DHT22;4639;48.862;9.188;2022-11-20T03:16:20;6.10;99.90
9209;DHT22;4639;48.862;9.188;2022-11-20T03:18:46;6.20;99.90
9209;DHT22;4639;48.862;9.188;2022-11-20T03:21:13;6.30;99.90
9209;DHT22;4639;48.862;9.188;2022-11-20T03:23:38;6.40;99.90
9209;DHT22;4639;48.862;9.188;2022-11-20T03:28:37;6.30;99.90
9209;DHT22;4639;48.862;9.188;2022-11-20T03:31:08;6.20;99.90
9209;DHT22;4639;48.862;9.188;2022-11-20T03:33:34;6.30;99.90
9209;DHT22;4639;48.862;9.188;2022-11-20T03:36:04;6.30;99.90
9209;DHT22;4639;48.862;9.188;2022-11-20T03:38:31;6.30;99.90
9209;DHT22;4639;48.862;9.188;2022-11-20T03:41:01;6.30;99.90
9209;DHT22;4639;48.862;9.188;2022-11-20T03:43:27;6.30;99.90
9209;DHT22;4639;48.862;9.188;2022-11-20T03:45:53;6.20;99.90
9209;DHT22;4639;48.862;9.188;2022-11-20T03:48:19;6.10;99.90
9209;DHT22;4639;48.862;9.188;2022-11-20T03:50:44;6.10;99.90
9209;DHT22;4639;48.862;9.188;2022-11-20T03:53:13;6.10;99.90
9209;DHT22;4639;48.862;9.188;2022-11-20T03:55:39;6.10;99.90
9209;DHT22;4639;48.862;9.188;2022-11-20T03:58:04;6.10;99.90
9209;DHT22;4639;48.862;9.188;2022-11-20T04:00:30;6.10;99.90
9209;DHT22;4639;48.862;9.188;2022-11-20T04:02:58;6.10;99.90
9209;DHT22;4639;48.862;9.188;2022-11-20T04:05:24;6.10;99.90
9209;DHT22;4639;48.862;9.188;2022-11-20T04:07:50;6.10;99.90
9209;DHT22;4639;48.862;9.188;2022-11-20T04:10:15;6.10;99.90
9209;DHT22;4639;48.862;9.188;2022-11-20T04:12:41;6.10;99.90
9209;DHT22;4639;48.862;9.188;2022-11-20T04:15:07;6.20;99.90
9209;DHT22;4639;48.862;9.188;2022-11-20T04:17:32;6.20;99.90
9209;DHT22;4639;48.862;9.188;2022-11-20T04:19:58;6.20;99.90
9209;DHT22;4639;48.862;9.188;2022-11-20T04:22:23;6.20;99.90
9209;DHT22;4639;48.862;9.188;2022-11-20T04:24:49;6.30;99.90
9209;DHT22;4639;48.862;9.188;2022-11-20T04:27:14;6.20;99.90
9209;DHT22;4639;48.862;9.188;2022-11-20T04:29:40;6.30;99.90
9209;DHT22;4639;48.862;9.188;2022-11-20T04:32:06;6.30;99.90
9209;DHT22;4639;48.862;9.188;2022-11-20T04:34:31;6.30;99.90
9209;DHT22;4639;48.862;9.188;2022-11-20T04:36:57;6.20;99.90
9209;DHT22;4639;48.862;9.188;2022-11-20T04:39:22;6.10;99.90
9209;DHT22;4639;48.862;9.188;2022-11-20T04:41:48;6.10;99.90
9209;DHT22;4639;48.862;9.188;2022-11-20T04:44:33;6.20;99.90
9209;DHT22;4639;48.862;9.188;2022-11-20T04:46:59;6.20;99.90
9209;DHT22;4639;48.862;9.188;2022-11-20T04:49:24;6.20;99.90
9209;DHT22;4639;48.862;9.188;2022-11-20T04:51:53;6.20;99.90
9209;DHT22;4639;48.862;9.188;2022-11-20T04:54:19;6.30;99.90
9209;DHT22;4639;48.862;9.188;2022-11-20T04:56:47;6.30;99.90
9209;DHT22;4639;48.862;9.188;2022-11-20T04:59:13;6.20;99.90
9209;DHT22;4639;48.862;9.188;2022-11-20T05:01:39;6.30;99.90
9209;DHT22;4639;48.862;9.188;2022-11-20T05:04:04;6.30;99.90
9209;DHT22;4639;48.862;9.188;2022-11-20T05:06:31;6.30;99.90
9209;DHT22;4639;48.862;9.188;2022-11-20T05:08:57;6.20;99.90
9209;DHT22;4639;48.862;9.188;2022-11-20T05:11:23;6.10;99.90
9209;DHT22;4639;48.862;9.188;2022-11-20T05:13:50;6.20;99.90
9209;DHT22;4639;48.862;9.188;2022-11-20T05:16:18;6.30;99.90
9209;DHT22;4639;48.862;9.188;2022-11-20T05:18:44;6.30;99.90
9209;DHT22;4639;48.862;9.188;2022-11-20T05:21:11;6.30;99.90
9209;DHT22;4639;48.862;9.188;2022-11-20T05:23:37;6.40;99.90
9209;DHT22;4639;48.862;9.188;2022-11-20T05:26:04;6.40;99.90
9209;DHT22;4639;48.862;9.188;2022-11-20T05:28:31;6.40;99.90
9209;DHT22;4639;48.862;9.188;2022-11-20T05:31:07;6.50;99.90
9209;DHT22;4639;48.862;9.188;2022-11-20T05:33:34;6.50;99.90
9209;DHT22;4639;48.862;9.188;2022-11-20T05:36:00;6.60;99.90
9209;DHT22;4639;48.862;9.188;2022-11-20T05:38:26;6.60;99.90
9209;DHT22;4639;48.862;9.188;2022-11-20T05:40:51;6.50;99.90
9209;DHT22;4639;48.862;9.188;2022-11-20T05:43:17;6.50;99.90
9209;DHT22;4639;48.862;9.188;2022-11-20T05:45:42;6.50;99.90
9209;DHT22;4639;48.862;9.188;2022-11-20T05:48:08;6.60;99.90
9209;DHT22;4639;48.862;9.188;2022-11-20T05:50:33;6.50;99.90
9209;DHT22;4639;48.862;9.188;2022-11-20T05:52:59;6.60;99.90
9209;DHT22;4639;48.862;9.188;2022-11-20T05:55:26;6.50;99.90
9209;DHT22;4639;48.862;9.188;2022-11-20T05:57:54;6.50;99.90
9209;DHT22;4639;48.862;9.188;2022-11-20T06:00:20;6.50;99.90
9209;DHT22;4639;48.862;9.188;2022-11-20T06:02:47;6.60;99.90
9209;DHT22;4639;48.862;9.188;2022-11-20T06:05:12;6.60;99.90
9209;DHT22;4639;48.862;9.188;2022-11-20T06:07:38;6.60;99.90
9209;DHT22;4639;48.862;9.188;2022-11-20T06:10:04;6.50;99.90
9209;DHT22;4639;48.862;9.188;2022-11-20T06:12:31;6.50;99.90
9209;DHT22;4639;48.862;9.188;2022-11-20T06:14:58;6.50;99.90
9209;DHT22;4639;48.862;9.188;2022-11-20T06:17:23;6.40;99.90
9209;DHT22;4639;48.862;9.188;2022-11-20T06:19:49;6.40;99.90
9209;DHT22;4639;48.862;9.188;2022-11-20T06:22:14;6.50;99.90
9209;DHT22;4639;48.862;9.188;2022-11-20T06:24:40;6.40;99.90
9209;DHT22;4639;48.862;9.188;2022-11-20T06:27:05;6.50;99.90
9209;DHT22;4639;48.862;9.188;2022-11-20T06:29:31;6.50;99.90
9209;DHT22;4639;48.862;9.188;2022-11-20T06:31:56;6.50;99.90
9209;DHT22;4639;48.862;9.188;2022-11-20T06:34:22;6.50;99.90
9209;DHT22;4639;48.862;9.188;2022-11-20T06:36:48;6.60;99.90
9209;DHT22;4639;48.862;9.188;2022-11-20T06:39:13;6.60;99.90
9209;DHT22;4639;48.862;9.188;2022-11-20T06:41:39;6.60;99.90
9209;DHT22;4639;48.862;9.188;2022-11-20T06:44:05;6.60;99.90
9209;DHT22;4639;48.862;9.188;2022-11-20T06:46:31;6.70;99.90
9209;DHT22;4639;48.862;9.188;2022-11-20T06:48:57;6.80;99.90
9209;DHT22;4639;48.862;9.188;2022-11-20T06:51:23;6.80;99.90
9209;DHT22;4639;48.862;9.188;2022-11-20T06:53:49;6.80;99.90
9209;DHT22;4639;48.862;9.188;2022-11-20T06:56:14;6.70;99.90
9209;DHT22;4639;48.862;9.188;2022-11-20T06:58:40;6.80;99.90
9209;DHT22;4639;48.862;9.188;2022-11-20T07:01:08;6.80;99.90
9209;DHT22;4639;48.862;9.188;2022-11-20T07:03:34;6.80;99.90
9209;DHT22;4639;48.862;9.188;2022-11-20T07:06:00;6.70;99.90
9209;DHT22;4639;48.862;9.188;2022-11-20T07:08:26;6.80;99.90
9209;DHT22;4639;48.862;9.188;2022-11-20T07:10:52;6.70;99.90
9209;DHT22;4639;48.862;9.188;2022-11-20T07:13:17;6.70;99.90
9209;DHT22;4639;48.862;9.188;2022-11-20T07:15:43;6.70;99.90
9209;DHT22;4639;48.862;9.188;2022-11-20T07:18:09;6.80;99.90
9209;DHT22;4639;48.862;9.188;2022-11-20T07:20:34;6.70;99.90
9209;DHT22;4639;48.862;9.188;2022-11-20T07:23:00;6.80;99.90
9209;DHT22;4639;48.862;9.188;2022-11-20T07:25:26;6.90;99.90
9209;DHT22;4639;48.862;9.188;2022-11-20T07:27:52;6.90;99.90
9209;DHT22;4639;48.862;9.188;2022-11-20T07:30:18;6.90;99.90
9209;DHT22;4639;48.862;9.188;2022-11-20T07:32:50;7.00;99.90
9209;DHT22;4639;48.862;9.188;2022-11-20T07:35:16;7.00;99.90
9209;DHT22;4639;48.862;9.188;2022-11-20T07:37:41;7.00;99.90
9209;DHT22;4639;48.862;9.188;2022-11-20T07:40:07;7.00;99.90
9209;DHT22;4639;48.862;9.188;2022-11-20T07:42:33;7.00;99.90
9209;DHT22;4639;48.862;9.188;2022-11-20T07:44:58;7.00;99.90
9209;DHT22;4639;48.862;9.188;2022-11-20T07:47:24;7.00;99.90
9209;DHT22;4639;48.862;9.188;2022-11-20T07:49:50;7.10;99.90
9209;DHT22;4639;48.862;9.188;2022-11-20T07:52:15;7.00;99.90
9209;DHT22;4639;48.862;9.188;2022-11-20T07:54:41;7.00;99.90
9209;DHT22;4639;48.862;9.188;2022-11-20T07:57:06;7.00;99.90
9209;DHT22;4639;48.862;9.188;2022-11-20T07:59:32;7.10;99.90
9209;DHT22;4639;48.862;9.188;2022-11-20T08:01:57;7.10;99.90
9209;DHT22;4639;48.862;9.188;2022-11-20T08:04:23;7.10;99.90
9209;DHT22;4639;48.862;9.188;2022-11-20T08:06:49;7.10;99.90
9209;DHT22;4639;48.862;9.188;2022-11-20T08:09:14;7.20;99.90
9209;DHT22;4639;48.862;9.188;2022-11-20T08:11:40;7.20;99.90
9209;DHT22;4639;48.862;9.188;2022-11-20T08:14:24;7.30;99.90
9209;DHT22;4639;48.862;9.188;2022-11-20T08:16:49;7.30;99.90
9209;DHT22;4639;48.862;9.188;2022-11-20T08:19:17;7.30;99.90
9209;DHT22;4639;48.862;9.188;2022-11-20T08:21:43;7.40;99.90
9209;DHT22;4639;48.862;9.188;2022-11-20T08:24:09;7.30;99.90
9209;DHT22;4639;48.862;9.188;2022-11-20T08:26:36;7.30;99.90
9209;DHT22;4639;48.862;9.188;2022-11-20T08:29:03;7.40;99.90
9209;DHT22;4639;48.862;9.188;2022-11-20T08:31:29;7.50;99.90
9209;DHT22;4639;48.862;9.188;2022-11-20T08:33:55;7.50;99.90
9209;DHT22;4639;48.862;9.188;2022-11-20T08:36:21;7.60;99.90
9209;DHT22;4639;48.862;9.188;2022-11-20T08:38:52;7.60;99.90
9209;DHT22;4639;48.862;9.188;2022-11-20T08:41:18;7.60;99.90
9209;DHT22;4639;48.862;9.188;2022-11-20T08:43:58;7.70;99.90
9209;DHT22;4639;48.862;9.188;2022-11-20T08:46:31;7.70;99.90
9209;DHT22;4639;48.862;9.188;2022-11-20T08:48:58;8.00;99.90
9209;DHT22;4639;48.862;9.188;2022-11-20T08:51:23;7.80;99.90
9209;DHT22;4639;48.862;9.188;2022-11-20T08:53:49;7.80;99.90
9209;DHT22;4639;48.862;9.188;2022-11-20T08:56:15;7.80;99.90
9209;DHT22;4639;48.862;9.188;2022-11-20T08:58:41;7.90;99.90
9209;DHT22;4639;48.862;9.188;2022-11-20T09:01:06;7.80;99.90
9209;DHT22;4639;48.862;9.188;2022-11-20T09:03:32;7.80;99.90
9209;DHT22;4639;48.862;9.188;2022-11-20T09:06:03;7.80;99.90
9209;DHT22;4639;48.862;9.188;2022-11-20T09:08:30;7.80;99.90
9209;DHT22;4639;48.862;9.188;2022-11-20T09:10:56;7.80;99.90
9209;DHT22;4639;48.862;9.188;2022-11-20T09:13:23;8.00;99.90
9209;DHT22;4639;48.862;9.188;2022-11-20T09:16:00;7.90;99.90
9209;DHT22;4639;48.862;9.188;2022-11-20T09:18:27;7.90;99.90
9209;DHT22;4639;48.862;9.188;2022-11-20T09:20:57;7.90;99.90
9209;DHT22;4639;48.862;9.188;2022-11-20T09:23:23;7.90;99.90
9209;DHT22;4639;48.862;9.188;2022-11-20T09:25:48;7.80;99.90
9209;DHT22;4639;48.862;9.188;2022-11-20T09:28:14;7.80;99.90
9209;DHT22;4639;48.862;9.188;2022-11-20T09:30:39;7.80;99.90
9209;DHT22;4639;48.862;9.188;2022-11-20T09:33:06;7.80;99.90
9209;DHT22;4639;48.862;9.188;2022-11-20T09:35:32;7.80;99.90
9209;DHT22;4639;48.862;9.188;2022-11-20T09:37:58;7.90;99.90
9209;DHT22;4639;48.862;9.188;2022-11-20T09:40:28;7.80;99.90
9209;DHT22;4639;48.862;9.188;2022-11-20T09:43:28;7.80;99.90
9209;DHT22;4639;48.862;9.188;2022-11-20T09:46:01;7.80;99.90
9209;DHT22;4639;48.862;9.188;2022-11-20T09:51:42;7.80;99.90
9209;DHT22;4639;48.862;9.188;2022-11-20T09:54:18;7.80;99.90
9209;DHT22;4639;48.862;9.188;2022-11-20T09:56:55;7.80;99.90
9209;DHT22;4639;48.862;9.188;2022-11-20T09:59:45;7.80;99.90
9209;DHT22;4639;48.862;9.188;2022-11-20T10:11:12;7.80;99.90
9209;DHT22;4639;48.862;9.188;2022-11-20T10:13:44;7.70;99.90
9209;DHT22;4639;48.862;9.188;2022-11-20T10:16:44;7.70;99.90
9209;DHT22;4639;48.862;9.188;2022-11-20T10:24:56;7.60;99.90
9209;DHT22;4639;48.862;9.188;2022-11-20T10:30:25;7.50;99.90
9209;DHT22;4639;48.862;9.188;2022-11-20T10:35:48;7.40;99.90
9209;DHT22;4639;48.862;9.188;2022-11-20T10:38:37;7.30;99.90
9209;DHT22;4639;48.862;9.188;2022-11-20T10:41:06;7.40;99.90
9209;DHT22;4639;48.862;9.188;2022-11-20T10:44:03;7.40;99.90
9209;DHT22;4639;48.862;9.188;2022-11-20T10:46:43;7.40;99.90
9209;DHT22;4639;48.862;9.188;2022-11-20T10:49:16;7.40;99.90
9209;DHT22;4639;48.862;9.188;2022-11-20T10:52:11;7.40;99.90
9209;DHT22;4639;48.862;9.188;2022-11-20T10:55:21;7.30;99.90
9209;DHT22;4639;48.862;9.188;2022-11-20T11:00:25;7.20;99.90
9209;DHT22;4639;48.862;9.188;2022-11-20T11:02:53;7.30;99.90
9209;DHT22;4639;48.862;9.188;2022-11-20T11:05:48;7.30;99.90
9209;DHT22;4639;48.862;9.188;2022-11-20T11:08:17;7.30;99.90
9209;DHT22;4639;48.862;9.188;2022-11-20T11:13:22;7.40;99.90
9209;DHT22;4639;48.862;9.188;2022-11-20T11:15:48;7.50;99.90
9209;DHT22;4639;48.862;9.188;2022-11-20T11:20:53;7.50;99.90
9209;DHT22;4639;48.862;9.188;2022-11-20T11:26:00;7.60;99.90
9209;DHT22;4639;48.862;9.188;2022-11-20T11:28:26;7.80;99.90
9209;DHT22;4639;48.862;9.188;2022-11-20T11:30:53;7.80;99.90
9209;DHT22;4639;48.862;9.188;2022-11-20T11:33:22;7.90;99.90
9209;DHT22;4639;48.862;9.188;2022-11-20T11:35:53;8.10;99.90
9209;DHT22;4639;48.862;9.188;2022-11-20T11:40:56;8.70;99.90
9209;DHT22;4639;48.862;9.188;2022-11-20T11:43:25;9.00;99.90
9209;DHT22;4639;48.862;9.188;2022-11-20T11:51:34;9.30;99.90
9209;DHT22;4639;48.862;9.188;2022-11-20T11:54:11;9.50;99.90
9209;DHT22;4639;48.862;9.188;2022-11-20T11:56:38;9.50;99.90
9209;DHT22;4639;48.862;9.188;2022-11-20T11:59:06;9.30;99.90
9209;DHT22;4639;48.862;9.188;2022-11-20T12:01:47;9.20;99.90
9209;DHT22;4639;48.862;9.188;2022-11-20T12:04:23;9.10;99.90
9209;DHT22;4639;48.862;9.188;2022-11-20T12:06:57;9.40;99.90
9209;DHT22;4639;48.862;9.188;2022-11-20T12:09:33;9.80;99.90
9209;DHT22;4639;48.862;9.188;2022-11-20T12:12:24;9.80;99.90
9209;DHT22;4639;48.862;9.188;2022-11-20T12:14:54;9.80;99.90
9209;DHT22;4639;48.862;9.188;2022-11-20T12:17:21;9.60;99.90
9209;DHT22;4639;48.862;9.188;2022-11-20T12:19:46;9.70;99.90
9209;DHT22;4639;48.862;9.188;2022-11-20T12:22:41;9.60;99.90
9209;DHT22;4639;48.862;9.188;2022-11-20T12:33:51;10.10;99.90
9209;DHT22;4639;48.862;9.188;2022-11-20T12:36:28;10.20;99.90
9209;DHT22;4639;48.862;9.188;2022-11-20T12:55:27;10.60;99.90
9209;DHT22;4639;48.862;9.188;2022-11-20T12:58:19;10.30;99.90
9209;DHT22;4639;48.862;9.188;2022-11-20T13:01:00;10.20;99.90
9209;DHT22;4639;48.862;9.188;2022-11-20T13:03:42;10.30;99.90
9209;DHT22;4639;48.862;9.188;2022-11-20T13:06:17;10.20;99.90
9209;DHT22;4639;48.862;9.188;2022-11-20T13:08:52;10.10;99.90
9209;DHT22;4639;48.862;9.188;2022-11-20T13:19:03;10.10;99.90
9209;DHT22;4639;48.862;9.188;2022-11-20T13:21:41;10.00;99.90
9209;DHT22;4639;48.862;9.188;2022-11-20T13:26:59;9.70;99.90
9209;DHT22;4639;48.862;9.188;2022-11-20T13:29:25;9.60;99.90
9209;DHT22;4639;48.862;9.188;2022-11-20T13:31:50;9.50;99.90
9209;DHT22;4639;48.862;9.188;2022-11-20T13:34:26;9.60;99.90
9209;DHT22;4639;48.862;9.188;2022-11-20T13:36:54;9.60;99.90
9209;DHT22;4639;48.862;9.188;2022-11-20T13:39:31;9.70;99.90
9209;DHT22;4639;48.862;9.188;2022-11-20T13:42:00;9.80;99.90
9209;DHT22;4639;48.862;9.188;2022-11-20T13:44:46;9.80;99.90
9209;DHT22;4639;48.862;9.188;2022-11-20T13:47:30;10.00;99.90
9209;DHT22;4639;48.862;9.188;2022-11-20T13:49:58;10.10;99.90
9209;DHT22;4639;48.862;9.188;2022-11-20T13:52:39;10.10;99.90
9209;DHT22;4639;48.862;9.188;2022-11-20T13:58:34;9.90;99.90
9209;DHT22;4639;48.862;9.188;2022-11-20T14:01:09;9.70;99.90
9209;DHT22;4639;48.862;9.188;2022-11-20T14:03:36;9.50;99.90
9209;DHT22;4639;48.862;9.188;2022-11-20T14:06:04;9.40;99.90
9209;DHT22;4639;48.862;9.188;2022-11-20T14:08:39;9.40;99.90
9209;DHT22;4639;48.862;9.188;2022-11-20T14:11:18;9.40;99.90
9209;DHT22;4639;48.862;9.188;2022-11-20T14:14:03;9.40;99.90
9209;DHT22;4639;48.862;9.188;2022-11-20T14:16:32;9.40;99.90
9209;DHT22;4639;48.862;9.188;2022-11-20T14:21:51;9.40;99.90
9209;DHT22;4639;48.862;9.188;2022-11-20T14:24:21;9.30;99.90
9209;DHT22;4639;48.862;9.188;2022-11-20T14:26:47;9.20;99.90
9209;DHT22;4639;48.862;9.188;2022-11-20T14:29:16;9.10;99.90
9209;DHT22;4639;48.862;9.188;2022-11-20T14:31:43;9.10;99.90
9209;DHT22;4639;48.862;9.188;2022-11-20T14:34:18;9.10;99.90
9209;DHT22;4639;48.862;9.188;2022-11-20T14:36:44;9.10;99.90
9209;DHT22;4639;48.862;9.188;2022-11-20T14:39:12;9.10;99.90
9209;DHT22;4639;48.862;9.188;2022-11-20T14:41:51;9.00;99.90
9209;DHT22;4639;48.862;9.188;2022-11-20T14:44:18;9.00;99.90
9209;DHT22;4639;48.862;9.188;2022-11-20T14:46:45;8.90;99.90
9209;DHT22;4639;48.862;9.188;2022-11-20T14:49:11;8.90;99.90
9209;DHT22;4639;48.862;9.188;2022-11-20T14:51:39;8.80;99.90
9209;DHT22;4639;48.862;9.188;2022-11-20T14:54:18;8.80;99.90
9209;DHT22;4639;48.862;9.188;2022-11-20T14:57:36;8.70;99.90
9209;DHT22;4639;48.862;9.188;2022-11-20T14:59:42;8.70;99.90
9209;DHT22;4639;48.862;9.188;2022-11-20T15:02:12;8.80;99.90
9209;DHT22;4639;48.862;9.188;2022-11-20T15:04:57;8.70;99.90
9209;DHT22;4639;48.862;9.188;2022-11-20T15:07:28;8.70;99.90
9209;DHT22;4639;48.862;9.188;2022-11-20T15:10:04;8.70;99.90
9209;DHT22;4639;48.862;9.188;2022-11-20T15:12:32;8.80;99.90
9209;DHT22;4639;48.862;9.188;2022-11-20T15:14:59;8.70;99.90
9209;DHT22;4639;48.862;9.188;2022-11-20T15:17:25;8.60;99.90
9209;DHT22;4639;48.862;9.188;2022-11-20T15:19:52;8.80;99.90
9209;DHT22;4639;48.862;9.188;2022-11-20T15:22:18;8.60;99.90
9209;DHT22;4639;48.862;9.188;2022-11-20T15:24:44;8.60;99.90
9209;DHT22;4639;48.862;9.188;2022-11-20T15:27:10;8.50;99.90
9209;DHT22;4639;48.862;9.188;2022-11-20T15:29:36;8.50;99.90
9209;DHT22;4639;48.862;9.188;2022-11-20T15:32:02;8.50;99.90
9209;DHT22;4639;48.862;9.188;2022-11-20T15:34:27;8.40;99.90
9209;DHT22;4639;48.862;9.188;2022-11-20T15:36:53;8.40;99.90
9209;DHT22;4639;48.862;9.188;2022-11-20T15:39:20;8.40;99.90
9209;DHT22;4639;48.862;9.188;2022-11-20T15:41:46;8.40;99.90
9209;DHT22;4639;48.862;9.188;2022-11-20T15:44:12;8.40;99.90
9209;DHT22;4639;48.862;9.188;2022-11-20T15:46:39;8.30;99.90
9209;DHT22;4639;48.862;9.188;2022-11-20T15:49:14;8.20;99.90
9209;DHT22;4639;48.862;9.188;2022-11-20T15:51:43;8.20;99.90
9209;DHT22;4639;48.862;9.188;2022-11-20T15:54:12;8.40;99.90
9209;DHT22;4639;48.862;9.188;2022-11-20T15:56:38;8.40;99.90
9209;DHT22;4639;48.862;9.188;2022-11-20T15:59:04;8.40;99.90
9209;DHT22;4639;48.862;9.188;2022-11-20T16:01:29;8.40;99.90
9209;DHT22;4639;48.862;9.188;2022-11-20T16:03:55;8.20;99.90
9209;DHT22;4639;48.862;9.188;2022-11-20T16:06:21;8.20;99.90
9209;DHT22;4639;48.862;9.188;2022-11-20T16:08:47;8.10;99.90
9209;DHT22;4639;48.862;9.188;2022-11-20T16:11:14;8.10;99.90
9209;DHT22;4639;48.862;9.188;2022-11-20T16:13:40;8.10;99.90
9209;DHT22;4639;48.862;9.188;2022-11-20T16:16:36;8.10;99.90
9209;DHT22;4639;48.862;9.188;2022-11-20T16:19:02;8.20;99.90
9209;DHT22;4639;48.862;9.188;2022-11-20T16:21:28;8.20;99.90
9209;DHT22;4639;48.862;9.188;2022-11-20T16:24:01;8.10;99.90
9209;DHT22;4639;48.862;9.188;2022-11-20T16:26:27;8.10;99.90
9209;DHT22;4639;48.862;9.188;2022-11-20T16:28:53;8.10;99.90
9209;DHT22;4639;48.862;9.188;2022-11-20T16:31:20;8.00;99.90
9209;DHT22;4639;48.862;9.188;2022-11-20T16:33:50;8.00;99.90
9209;DHT22;4639;48.862;9.188;2022-11-20T16:36:17;8.00;99.90
9209;DHT22;4639;48.862;9.188;2022-11-20T16:38:42;8.20;99.90
9209;DHT22;4639;48.862;9.188;2022-11-20T16:41:09;8.00;99.90
9209;DHT22;4639;48.862;9.188;2022-11-20T16:43:59;8.00;99.90
9209;DHT22;4639;48.862;9.188;2022-11-20T16:46:28;8.00;99.90
9209;DHT22;4639;48.862;9.188;2022-11-20T16:48:57;8.00;99.90
9209;DHT22;4639;48.862;9.188;2022-11-20T16:51:23;8.00;99.90
9209;DHT22;4639;48.862;9.188;2022-11-20T16:53:49;8.00;99.90
9209;DHT22;4639;48.862;9.188;2022-11-20T16:56:18;8.00;99.90
9209;DHT22;4639;48.862;9.188;2022-11-20T16:58:44;8.00;99.90
9209;DHT22;4639;48.862;9.188;2022-11-20T17:01:15;8.10;99.90
9209;DHT22;4639;48.862;9.188;2022-11-20T17:03:43;8.10;99.90
9209;DHT22;4639;48.862;9.188;2022-11-20T17:06:21;8.00;99.90
9209;DHT22;4639;48.862;9.188;2022-11-20T17:08:47;8.00;99.90
9209;DHT22;4639;48.862;9.188;2022-11-20T17:11:16;8.00;99.90
9209;DHT22;4639;48.862;9.188;2022-11-20T17:13:42;8.00;99.90
9209;DHT22;4639;48.862;9.188;2022-11-20T17:16:14;8.00;99.90
9209;DHT22;4639;48.862;9.188;2022-11-20T17:18:41;8.00;99.90
9209;DHT22;4639;48.862;9.188;2022-11-20T17:21:07;7.90;99.90
9209;DHT22;4639;48.862;9.188;2022-11-20T17:23:37;7.90;99.90
9209;DHT22;4639;48.862;9.188;2022-11-20T17:28:30;7.80;99.90
9209;DHT22;4639;48.862;9.188;2022-11-20T17:31:07;7.90;99.90
9209;DHT22;4639;48.862;9.188;2022-11-20T17:33:35;7.90;99.90
9209;DHT22;4639;48.862;9.188;2022-11-20T17:36:00;7.90;99.90
9209;DHT22;4639;48.862;9.188;2022-11-20T17:38:26;7.80;99.90
9209;DHT22;4639;48.862;9.188;2022-11-20T17:40:52;7.80;99.90
9209;DHT22;4639;48.862;9.188;2022-11-20T17:43:18;7.70;99.90
9209;DHT22;4639;48.862;9.188;2022-11-20T17:45:43;7.80;99.90
9209;DHT22;4639;48.862;9.188;2022-11-20T17:48:10;7.80;99.90
9209;DHT22;4639;48.862;9.188;2022-11-20T17:50:35;7.90;99.90
9209;DHT22;4639;48.862;9.188;2022-11-20T17:53:01;7.90;99.90
9209;DHT22;4639;48.862;9.188;2022-11-20T17:55:26;7.90;99.90
9209;DHT22;4639;48.862;9.188;2022-11-20T17:58:12;7.80;99.90